Time;durP1;ratioP1;P1;durP2;ratioP2;P2;SDS_P1;SDS_P2;PMS_P1;PMS_P2;Temp;Humidity;BMP_temperature;BMP_pressure;BME280_temperature;BME280_humidity;BME280_pressure;Samples;Min_cycle;Max_cycle;Signal;HPM_P1;HPM_P2
2023/07/07 00:00:54;;;;;;;3.60;3.30;;;;;;;16.53;89.46;101993.78;6139253;28;20830;-71
2023/07/07 00:04:17;;;;;;;3.50;3.20;;;;;;;16.54;89.82;101988.16;6152422;28;20258;-70
2023/07/07 00:07:38;;;;;;;3.57;3.27;;;;;;;16.48;90.36;101985.16;6144566;28;21754;-70
2023/07/07 00:11:00;;;;;;;4.20;3.63;;;;;;;16.53;90.39;101989.19;6149350;28;20242;-71
2023/07/07 00:14:21;;;;;;;3.80;3.13;;;;;;;16.59;90.30;101988.59;6141318;28;20267;-69
2023/07/07 00:17:42;;;;;;;3.30;3.10;;;;;;;16.62;90.49;101982.00;6134107;28;21813;-68
2023/07/07 00:21:05;;;;;;;3.77;3.47;;;;;;;16.56;90.10;101988.88;6151126;28;20325;-71
2023/07/07 00:24:26;;;;;;;5.20;4.70;;;;;;;16.34;90.60;101988.31;6128490;28;20273;-70
2023/07/07 00:27:46;;;;;;;4.72;3.50;;;;;;;16.45;90.59;101988.16;6148671;28;20318;-70
2023/07/07 00:31:07;;;;;;;5.60;3.95;;;;;;;16.51;90.66;101987.63;6119116;28;20325;-70
2023/07/07 00:34:29;;;;;;;3.58;3.28;;;;;;;16.56;90.86;101988.03;6141377;28;20243;-69
2023/07/07 00:37:51;;;;;;;6.18;4.43;;;;;;;16.52;90.43;101990.19;6155319;28;20317;-70
2023/07/07 00:41:12;;;;;;;5.00;3.42;;;;;;;16.54;90.80;101993.63;6146459;28;20231;-69
2023/07/07 00:45:11;;;;;;;6.22;4.03;;;;;;;16.55;90.36;101997.19;6118767;28;20230;-70
2023/07/07 00:48:37;;;;;;;3.40;3.10;;;;;;;16.53;90.36;101991.91;6134635;28;20313;-70
2023/07/07 00:52:02;;;;;;;4.53;4.10;;;;;;;16.41;90.51;101993.06;6140634;28;20239;-70
2023/07/07 00:55:29;;;;;;;7.18;4.78;;;;;;;16.22;90.42;101992.22;6127478;28;20234;-70
2023/07/07 00:58:51;;;;;;;4.43;3.97;;;;;;;16.31;90.87;101997.63;6153983;28;22396;-70
2023/07/07 01:02:24;;;;;;;6.45;4.88;;;;;;;16.27;91.15;102000.81;6131000;28;20226;-70
2023/07/07 01:05:45;;;;;;;4.05;3.75;;;;;;;16.24;90.99;101996.53;6135897;28;20225;-69
2023/07/07 01:09:08;;;;;;;4.72;4.03;;;;;;;16.27;90.97;102003.53;6147801;28;20242;-71
2023/07/07 01:12:31;;;;;;;7.43;4.90;;;;;;;15.95;91.70;102007.44;6134754;28;20250;-69
2023/07/07 01:16:02;;;;;;;4.67;4.17;;;;;;;15.82;92.12;102009.56;6110884;28;20246;-70
2023/07/07 01:19:50;;;;;;;4.73;4.33;;;;;;;15.73;92.83;102004.09;6135718;28;20253;-70
2023/07/07 01:23:34;;;;;;;5.10;4.10;;;;;;;16.00;93.11;101994.25;6144223;28;20274;-70
2023/07/07 01:27:12;;;;;;;4.13;3.83;;;;;;;16.10;93.07;102005.13;6123711;28;20247;-70
2023/07/07 01:30:40;;;;;;;6.33;4.30;;;;;;;16.18;92.64;101997.09;6127860;28;20246;-70
2023/07/07 01:34:03;;;;;;;5.07;4.40;;;;;;;16.12;92.89;102005.84;6151597;28;20239;-70
2023/07/07 01:37:24;;;;;;;4.70;4.30;;;;;;;16.04;92.43;102005.72;6136422;28;20239;-69
2023/07/07 01:40:53;;;;;;;5.10;4.70;;;;;;;15.64;92.42;102000.41;6134451;28;20644;-70
2023/07/07 01:44:20;;;;;;;5.27;4.77;;;;;;;15.83;92.80;102003.09;6147909;28;20756;-69
2023/07/07 01:47:50;;;;;;;4.17;3.83;;;;;;;15.84;93.01;102007.56;6139261;28;20246;-70
2023/07/07 01:51:14;;;;;;;5.00;4.60;;;;;;;15.89;92.67;102013.44;6148388;28;20311;-68
2023/07/07 01:54:40;;;;;;;4.50;4.07;;;;;;;16.04;92.81;102010.28;6133509;28;20235;-69
2023/07/07 01:58:05;;;;;;;5.25;4.50;;;;;;;15.78;92.81;102008.13;6149325;28;20616;-70
2023/07/07 02:01:27;;;;;;;4.40;3.93;;;;;;;15.65;92.79;101999.38;6136659;28;20235;-70
2023/07/07 02:04:50;;;;;;;4.97;4.20;;;;;;;15.73;93.38;102001.38;6121664;28;20246;-70
2023/07/07 02:08:11;;;;;;;4.57;4.17;;;;;;;15.68;93.33;101996.41;6138533;28;20231;-70
2023/07/07 02:11:31;;;;;;;5.20;4.77;;;;;;;15.61;93.63;102003.38;6153577;28;20226;-69
2023/07/07 02:14:52;;;;;;;5.33;4.40;;;;;;;15.62;93.48;102005.13;6142156;28;20242;-69
2023/07/07 02:18:13;;;;;;;6.37;4.93;;;;;;;15.41;93.84;101998.91;6149159;28;20520;-69
2023/07/07 02:21:36;;;;;;;3.87;3.43;;;;;;;15.67;93.40;102005.53;6123368;28;20254;-69
2023/07/07 02:24:57;;;;;;;4.97;4.00;;;;;;;15.40;93.70;102007.16;6150114;28;20238;-69
2023/07/07 02:28:18;;;;;;;3.97;3.50;;;;;;;15.53;93.38;101999.66;6146598;28;20246;-70
2023/07/07 02:31:39;;;;;;;4.07;3.70;;;;;;;15.39;93.26;101995.47;6145217;28;20223;-69
2023/07/07 02:35:01;;;;;;;5.07;4.27;;;;;;;15.52;93.68;101996.06;6149176;28;20247;-70
2023/07/07 02:38:23;;;;;;;4.73;4.23;;;;;;;15.43;93.52;102004.22;6142576;28;20238;-69
2023/07/07 02:41:46;;;;;;;5.40;4.40;;;;;;;15.27;93.59;102001.16;6143753;28;20356;-68
2023/07/07 02:45:07;;;;;;;5.20;4.70;;;;;;;15.16;93.94;101999.41;6141799;28;20628;-70
2023/07/07 02:48:28;;;;;;;4.87;4.50;;;;;;;15.25;94.00;102003.97;6146044;28;20234;-69
2023/07/07 02:51:49;;;;;;;4.93;4.50;;;;;;;15.34;93.92;102003.16;6150811;28;20230;-70
2023/07/07 02:55:11;;;;;;;7.53;4.60;;;;;;;15.39;93.54;102010.91;6141242;28;20234;-69
2023/07/07 02:58:32;;;;;;;3.67;3.37;;;;;;;15.39;93.68;102009.03;6145569;28;20421;-69
2023/07/07 03:01:54;;;;;;;12.20;5.27;;;;;;;15.45;93.31;102008.53;6134301;28;20235;-70
2023/07/07 03:05:14;;;;;;;4.57;4.17;;;;;;;15.62;93.25;102009.69;6133339;28;20231;-69
2023/07/07 03:08:36;;;;;;;5.87;4.70;;;;;;;15.66;92.64;102009.28;6138235;28;20240;-69
2023/07/07 03:11:59;;;;;;;4.60;4.20;;;;;;;15.50;92.98;102019.81;6150964;28;20234;-70
2023/07/07 03:15:21;;;;;;;4.87;4.37;;;;;;;15.56;92.85;102012.97;6143515;28;20231;-70
2023/07/07 03:18:43;;;;;;;5.87;4.50;;;;;;;15.66;92.46;102031.03;6132741;28;20318;-69
2023/07/07 03:22:05;;;;;;;4.70;4.33;;;;;;;15.58;91.80;102025.41;6146894;28;20246;-69
2023/07/07 03:25:36;;;;;;;4.43;4.03;;;;;;;15.59;92.25;102023.56;6147994;28;20242;-70
2023/07/07 03:28:58;;;;;;;5.97;4.17;;;;;;;15.62;91.52;102029.59;6145168;28;20296;-69
2023/07/07 03:32:20;;;;;;;4.23;3.93;;;;;;;15.62;91.25;102024.16;6147505;28;20243;-69
2023/07/07 03:35:43;;;;;;;5.80;4.30;;;;;;;15.66;91.64;102030.16;6126170;28;20808;-70
2023/07/07 03:39:05;;;;;;;4.93;4.53;;;;;;;15.63;91.46;102036.72;6145710;28;20235;-69
2023/07/07 03:42:27;;;;;;;5.23;4.43;;;;;;;15.65;91.56;102042.88;6153006;28;20239;-68
2023/07/07 03:45:50;;;;;;;4.07;3.70;;;;;;;15.68;90.89;102037.19;6142808;28;20952;-69
2023/07/07 03:49:12;;;;;;;4.87;3.47;;;;;;;15.75;90.58;102041.03;6148017;28;20230;-70
2023/07/07 03:52:34;;;;;;;8.67;4.57;;;;;;;15.83;90.31;102043.91;6135455;28;20235;-69
2023/07/07 03:55:57;;;;;;;4.87;4.40;;;;;;;15.92;90.53;102047.63;6152294;28;20263;-70
2023/07/07 03:59:20;;;;;;;4.43;4.00;;;;;;;16.01;89.95;102049.50;6153670;28;20238;-70
2023/07/07 04:02:44;;;;;;;6.70;5.93;;;;;;;16.01;89.89;102052.22;6125719;28;20235;-70
2023/07/07 04:06:05;;;;;;;10.23;9.10;;;;;;;16.02;89.77;102053.94;6145810;28;20625;-70
2023/07/07 04:09:27;;;;;;;5.80;4.90;;;;;;;16.14;89.59;102050.09;6142857;28;20254;-70
2023/07/07 04:12:50;;;;;;;4.77;4.37;;;;;;;16.09;88.99;102052.38;6145213;28;20857;-70
2023/07/07 04:16:12;;;;;;;4.47;4.07;;;;;;;16.18;89.12;102061.53;6143756;28;20241;-70
2023/07/07 04:19:34;;;;;;;4.37;3.97;;;;;;;16.21;88.98;102055.81;6152747;28;20610;-70
2023/07/07 04:22:55;;;;;;;4.20;3.83;;;;;;;16.28;88.87;102057.81;6140796;28;20239;-71
2023/07/07 04:26:17;;;;;;;4.27;3.93;;;;;;;16.07;88.30;102061.69;6139382;28;20231;-70
2023/07/07 04:29:38;;;;;;;5.07;4.57;;;;;;;16.09;88.22;102059.66;6149544;28;20528;-70
2023/07/07 04:32:59;;;;;;;4.83;4.43;;;;;;;16.21;88.16;102070.28;6155756;28;20325;-70
2023/07/07 04:36:22;;;;;;;4.30;3.77;;;;;;;16.38;88.44;102071.41;6149689;28;20628;-69
2023/07/07 04:39:43;;;;;;;6.00;4.37;;;;;;;16.38;88.18;102079.56;6152898;28;20663;-70
2023/07/07 04:43:04;;;;;;;4.87;3.73;;;;;;;16.54;87.54;102071.72;6150492;28;20503;-69
2023/07/07 04:46:26;;;;;;;6.30;5.07;;;;;;;16.62;87.32;102064.56;6141391;28;20239;-69
2023/07/07 04:49:47;;;;;;;4.87;4.10;;;;;;;16.67;86.55;102069.53;6147078;28;20234;-68
2023/07/07 04:53:09;;;;;;;4.50;4.17;;;;;;;16.67;86.19;102064.09;6147041;28;20239;-69
2023/07/07 04:56:32;;;;;;;4.83;4.43;;;;;;;16.60;86.11;102061.13;6136607;28;20243;-70
2023/07/07 04:59:54;;;;;;;4.63;4.10;;;;;;;16.79;86.17;102057.50;6149097;28;20235;-70
2023/07/07 05:03:14;;;;;;;6.07;4.17;;;;;;;16.75;85.99;102062.34;6140460;28;20528;-70
2023/07/07 05:06:38;;;;;;;3.70;3.40;;;;;;;16.68;85.90;102065.81;6144292;28;20243;-70
2023/07/07 05:10:00;;;;;;;3.17;2.97;;;;;;;16.55;85.98;102063.41;6144946;28;20238;-69
2023/07/07 05:13:21;;;;;;;9.37;3.97;;;;;;;16.65;86.16;102057.94;6149451;28;20226;-70
2023/07/07 05:16:42;;;;;;;4.77;3.97;;;;;;;16.77;85.03;102059.50;6134393;28;20235;-70
2023/07/07 05:20:03;;;;;;;4.23;3.33;;;;;;;16.77;84.06;102068.50;6142793;28;20660;-71
2023/07/07 05:23:25;;;;;;;4.90;4.13;;;;;;;16.59;83.67;102063.97;6133038;28;20322;-71
2023/07/07 05:26:47;;;;;;;5.63;3.77;;;;;;;16.59;83.50;102072.13;6136397;28;20261;-70
2023/07/07 05:30:09;;;;;;;5.53;4.43;;;;;;;17.01;83.20;102068.03;6138154;28;20238;-70
2023/07/07 05:33:30;;;;;;;6.20;4.23;;;;;;;17.00;82.39;102069.03;6139354;28;20242;-71
2023/07/07 05:36:51;;;;;;;4.43;3.77;;;;;;;17.19;81.83;102071.69;6136792;28;20235;-70
2023/07/07 05:40:12;;;;;;;6.43;3.97;;;;;;;17.31;81.23;102073.19;6139636;28;20230;-68
2023/07/07 05:43:35;;;;;;;5.63;3.73;;;;;;;17.46;79.92;102074.41;6145854;28;20246;-70
2023/07/07 05:46:56;;;;;;;4.30;3.73;;;;;;;17.49;78.87;102070.53;6147501;28;21427;-69
2023/07/07 05:50:16;;;;;;;5.17;3.03;;;;;;;17.23;78.43;102064.91;6138934;28;20743;-72
2023/07/07 05:53:41;;;;;;;18.30;4.03;;;;;;;17.23;78.88;102069.53;6139540;28;20234;-71
2023/07/07 05:57:04;;;;;;;4.20;3.80;;;;;;;17.24;78.49;102073.97;6138178;28;20239;-70
2023/07/07 06:00:28;;;;;;;6.17;4.07;;;;;;;17.33;78.37;102073.06;6144397;28;20230;-68
2023/07/07 06:03:49;;;;;;;3.43;3.10;;;;;;;17.69;77.79;102079.53;6138832;28;20234;-69
2023/07/07 06:07:09;;;;;;;5.40;3.57;;;;;;;17.47;77.88;102092.50;6149530;28;20612;-69
2023/07/07 06:10:30;;;;;;;3.30;3.00;;;;;;;17.44;77.39;102091.94;6149408;28;20234;-68
2023/07/07 06:13:51;;;;;;;4.17;3.07;;;;;;;17.66;77.12;102088.00;6147973;28;20235;-69
2023/07/07 06:17:13;;;;;;;3.40;3.10;;;;;;;17.62;76.86;102092.91;6145448;28;20592;-67
2023/07/07 06:20:34;;;;;;;3.37;3.07;;;;;;;17.88;77.08;102088.41;6150860;28;20239;-70
2023/07/07 06:23:55;;;;;;;3.93;3.53;;;;;;;18.24;76.29;102092.91;6154968;28;20235;-68
2023/07/07 06:27:16;;;;;;;3.58;3.25;;;;;;;18.22;75.80;102097.66;6132404;28;20513;-68
2023/07/07 06:30:37;;;;;;;4.53;3.83;;;;;;;18.63;75.65;102093.44;6144708;28;20234;-66
2023/07/07 06:33:59;;;;;;;3.20;2.93;;;;;;;18.67;75.08;102094.81;6144189;28;20258;-67
2023/07/07 06:37:20;;;;;;;5.40;2.65;;;;;;;18.88;74.60;102094.47;6149675;28;20262;-68
2023/07/07 06:40:41;;;;;;;3.92;3.42;;;;;;;18.73;74.25;102094.19;6147166;28;20317;-67
2023/07/07 06:44:02;;;;;;;3.85;3.53;;;;;;;18.73;74.55;102102.38;6148046;28;20239;-68
2023/07/07 06:47:23;;;;;;;3.40;3.10;;;;;;;19.07;74.39;102102.47;6137839;28;20623;-68
2023/07/07 06:50:46;;;;;;;3.40;3.10;;;;;;;19.05;74.18;102108.09;6127026;28;20223;-66
2023/07/07 06:54:06;;;;;;;5.30;2.80;;;;;;;19.17;74.48;102105.09;6141574;28;20242;-67
2023/07/07 06:57:27;;;;;;;3.20;2.90;;;;;;;19.63;73.82;102110.16;6135966;28;20226;-67
2023/07/07 07:00:48;;;;;;;3.47;3.03;;;;;;;19.40;73.65;102106.28;6131861;28;20237;-68
2023/07/07 07:04:09;;;;;;;3.22;2.97;;;;;;;19.82;73.08;102110.72;6147619;28;20235;-67
2023/07/07 07:07:32;;;;;;;6.13;3.60;;;;;;;19.77;72.76;102102.19;6138023;28;20239;-67
2023/07/07 07:10:53;;;;;;;4.60;3.00;;;;;;;19.64;72.82;102109.13;6133794;28;20226;-68
2023/07/07 07:14:13;;;;;;;5.78;2.92;;;;;;;19.70;72.12;102106.59;6146709;28;20585;-66
2023/07/07 07:17:35;;;;;;;3.30;2.78;;;;;;;20.27;72.12;102104.03;6138082;28;20251;-68
2023/07/07 07:20:55;;;;;;;6.57;3.42;;;;;;;20.38;70.95;102109.19;6150491;28;20227;-68
2023/07/07 07:24:19;;;;;;;8.15;3.63;;;;;;;20.47;70.37;102105.41;6148971;28;20234;-66
2023/07/07 07:27:39;;;;;;;4.13;3.28;;;;;;;20.32;70.44;102105.22;6145679;28;20319;-66
2023/07/07 07:31:02;;;;;;;5.22;2.80;;;;;;;20.51;70.32;102104.91;6154975;28;20235;-68
2023/07/07 07:34:25;;;;;;;4.07;3.03;;;;;;;20.52;69.82;102103.03;6127934;28;20234;-66
2023/07/07 07:37:46;;;;;;;5.35;3.35;;;;;;;20.78;69.13;102105.59;6133800;28;20238;-67
2023/07/07 07:41:16;;;;;;;4.25;3.58;;;;;;;20.73;68.96;102108.84;6130726;28;20697;-66
2023/07/07 07:44:36;;;;;;;3.00;2.75;;;;;;;20.35;68.47;102107.63;6135312;28;20234;-67
2023/07/07 07:47:57;;;;;;;3.63;3.25;;;;;;;20.83;68.00;102111.41;6130298;28;20759;-65
2023/07/07 07:51:18;;;;;;;4.00;2.75;;;;;;;21.00;67.33;102113.97;6150264;28;20230;-65
2023/07/07 07:54:39;;;;;;;2.50;2.30;;;;;;;21.21;66.45;102114.31;6151815;28;20240;-68
2023/07/07 07:58:01;;;;;;;2.63;1.70;;;;;;;21.51;66.27;102117.31;6138200;28;20242;-65
2023/07/07 08:01:22;;;;;;;2.58;2.13;;;;;;;21.63;65.83;102122.22;6139828;28;20227;-65
2023/07/07 08:04:43;;;;;;;3.03;2.70;;;;;;;21.45;64.88;102122.47;6146650;28;20230;-65
2023/07/07 08:08:05;;;;;;;3.53;3.17;;;;;;;20.82;64.94;102131.66;6146781;28;20625;-67
2023/07/07 08:11:54;;;;;;;3.50;3.13;;;;;;;21.19;65.55;102127.34;6150546;28;20235;-65
2023/07/07 08:15:16;;;;;;;4.18;3.28;;;;;;;21.55;64.56;102115.91;6151170;28;20818;-64
2023/07/07 08:18:37;;;;;;;2.65;2.45;;;;;;;21.82;63.78;102121.81;6123052;28;20673;-66
2023/07/07 08:21:58;;;;;;;2.90;2.40;;;;;;;22.15;64.06;102120.59;6151695;28;20601;-66
2023/07/07 08:25:19;;;;;;;3.53;2.63;;;;;;;22.10;63.49;102122.19;6146849;28;20629;-66
2023/07/07 08:28:40;;;;;;;2.75;2.40;;;;;;;22.05;63.09;102121.91;6151906;28;20723;-65
2023/07/07 08:32:03;;;;;;;4.10;2.28;;;;;;;21.96;61.68;102122.97;6146144;28;20314;-68
2023/07/07 08:35:24;;;;;;;2.75;2.55;;;;;;;22.48;61.60;102121.25;6141569;28;20231;-69
2023/07/07 08:38:45;;;;;;;2.47;2.20;;;;;;;22.79;61.53;102123.94;6147986;28;20246;-66
2023/07/07 08:42:18;;;;;;;4.47;2.03;;;;;;;22.44;58.21;102128.16;6148652;28;20665;-67
2023/07/07 08:45:46;;;;;;;2.70;2.33;;;;;;;22.31;59.87;102118.78;6144239;28;20265;-67
2023/07/07 08:49:15;;;;;;;4.70;3.08;;;;;;;22.80;60.85;102114.66;6143915;28;20230;-66
2023/07/07 08:52:45;;;;;;;2.97;2.63;;;;;;;22.63;58.89;102113.09;6127671;28;20234;-68
2023/07/07 08:56:11;;;;;;;6.00;2.38;;;;;;;22.67;58.60;102128.19;6132243;28;20234;-68
2023/07/07 08:59:43;;;;;;;2.75;2.20;;;;;;;23.02;57.54;102119.25;6137944;28;20282;-68
2023/07/07 09:03:23;;;;;;;2.72;1.83;;;;;;;22.49;56.59;102122.13;6143883;28;20239;-67
2023/07/07 09:06:59;;;;;;;2.47;1.77;;;;;;;22.80;56.83;102128.41;6140013;28;20234;-66
2023/07/07 09:10:38;;;;;;;2.72;2.20;;;;;;;23.30;56.36;102136.00;6146383;28;20226;-66
2023/07/07 09:14:00;;;;;;;3.85;1.83;;;;;;;23.76;55.31;102129.28;6142086;28;20298;-66
2023/07/07 09:17:27;;;;;;;5.15;2.17;;;;;;;23.59;54.72;102133.28;6146462;28;20230;-67
2023/07/07 09:20:54;;;;;;;3.75;2.63;;;;;;;23.70;53.61;102130.91;6139618;28;20243;-67
2023/07/07 09:24:24;;;;;;;3.60;2.33;;;;;;;23.53;53.64;102142.31;6141906;28;20242;-66
2023/07/07 09:27:50;;;;;;;3.17;2.25;;;;;;;24.14;53.95;102133.59;6138714;28;20235;-66
2023/07/07 09:31:24;;;;;;;4.70;1.63;;;;;;;23.85;52.43;102130.88;6142449;28;21924;-66
2023/07/07 09:34:45;;;;;;;1.73;1.60;;;;;;;23.58;50.47;102137.94;6146618;28;20271;-66
2023/07/07 09:38:15;;;;;;;2.25;1.58;;;;;;;23.53;49.68;102129.38;6152369;28;20238;-66
2023/07/07 09:41:49;;;;;;;4.43;2.25;;;;;;;23.41;49.28;102128.16;6137866;28;20234;-67
2023/07/07 09:45:24;;;;;;;1.25;1.15;;;;;;;23.62;49.61;102124.63;6140514;28;20490;-67
2023/07/07 09:48:53;;;;;;;2.25;2.05;;;;;;;23.79;48.21;102127.00;6147920;28;20234;-67
2023/07/07 09:52:31;;;;;;;3.08;1.85;;;;;;;24.05;48.21;102126.53;6143907;28;20308;-66
2023/07/07 09:55:53;;;;;;;3.70;1.50;;;;;;;24.24;50.15;102122.28;6133685;28;20258;-68
2023/07/07 09:59:21;;;;;;;2.92;1.95;;;;;;;24.35;49.68;102113.47;6142752;28;20534;-69
2023/07/07 10:02:44;;;;;;;4.10;1.70;;;;;;;24.13;47.86;102126.41;6136051;28;20230;-67
2023/07/07 10:06:11;;;;;;;2.33;1.50;;;;;;;24.12;47.89;102119.16;6134917;28;20579;-65
2023/07/07 10:09:33;;;;;;;3.13;1.88;;;;;;;24.28;47.82;102132.69;6145613;28;20548;-66
2023/07/07 10:12:54;;;;;;;2.38;1.40;;;;;;;24.43;47.27;102128.00;6131745;28;20239;-67
2023/07/07 10:16:29;;;;;;;2.75;1.73;;;;;;;24.33;46.61;102132.13;6137730;28;20311;-66
2023/07/07 10:19:53;;;;;;;1.70;1.60;;;;;;;24.50;46.84;102131.69;6132297;28;20247;-66
2023/07/07 10:23:15;;;;;;;2.15;1.85;;;;;;;24.52;47.38;102131.47;6150485;28;20223;-66
2023/07/07 10:26:39;;;;;;;1.33;0.98;;;;;;;24.49;46.55;102126.38;6139960;28;20234;-67
2023/07/07 10:30:04;;;;;;;3.90;1.95;;;;;;;24.55;46.37;102134.69;6141776;28;20333;-66
2023/07/07 10:33:26;;;;;;;2.92;1.58;;;;;;;24.57;46.60;102132.59;6156500;28;20604;-65
2023/07/07 10:36:47;;;;;;;1.10;1.02;;;;;;;24.55;46.82;102136.63;6142883;28;22479;-67
2023/07/07 10:40:15;;;;;;;2.00;1.42;;;;;;;24.79;47.00;102121.56;6143733;28;20234;-70
2023/07/07 10:43:36;;;;;;;1.73;1.63;;;;;;;24.48;46.26;102119.13;6144925;28;20230;-67
2023/07/07 10:46:57;;;;;;;4.60;2.60;;;;;;;24.88;46.50;102117.63;6154882;28;20230;-67
2023/07/07 10:50:21;;;;;;;2.60;1.35;;;;;;;24.38;46.12;102122.22;6146680;28;20238;-66
2023/07/07 10:53:51;;;;;;;4.50;1.40;;;;;;;24.28;45.78;102129.94;6158848;28;20226;-65
2023/07/07 10:57:28;;;;;;;1.38;1.27;;;;;;;24.83;46.96;102117.38;6144223;28;20238;-66
2023/07/07 11:01:02;;;;;;;2.38;1.55;;;;;;;24.82;45.50;102119.31;6147959;28;20754;-66
2023/07/07 11:04:40;;;;;;;1.65;1.42;;;;;;;24.85;45.20;102115.25;6149252;28;20230;-66
2023/07/07 11:08:16;;;;;;;2.60;1.58;;;;;;;25.15;45.44;102112.13;6152355;28;20564;-66
2023/07/07 11:11:51;;;;;;;1.20;1.10;;;;;;;24.96;44.83;102114.72;6151182;28;20234;-66
2023/07/07 11:15:22;;;;;;;1.38;1.27;;;;;;;25.30;44.47;102115.59;6150040;28;20219;-67
2023/07/07 11:19:06;;;;;;;4.53;1.40;;;;;;;25.44;44.58;102115.75;6150856;28;20636;-65
2023/07/07 11:23:02;;;;;;;2.75;1.25;;;;;;;25.69;44.20;102115.03;6148352;28;20230;-66
2023/07/07 11:26:33;;;;;;;2.38;1.15;;;;;;;25.38;44.16;102121.00;6121152;28;20333;-66
2023/07/07 11:30:03;;;;;;;1.40;1.30;;;;;;;25.65;43.30;102124.78;6139994;28;20238;-66
2023/07/07 11:33:34;;;;;;;1.40;1.30;;;;;;;25.62;42.96;102119.66;6148493;28;20620;-65
2023/07/07 11:37:06;;;;;;;2.28;2.00;;;;;;;25.87;42.61;102122.75;6142434;28;20227;-65
2023/07/07 11:40:48;;;;;;;2.30;2.10;;;;;;;25.99;42.87;102118.38;6147372;28;20230;-65
2023/07/07 11:44:47;;;;;;;1.98;1.45;;;;;;;25.89;42.21;102112.34;6152581;28;20238;-63
2023/07/07 11:48:32;;;;;;;3.58;1.13;;;;;;;26.22;43.98;102116.13;6123576;28;20667;-64
2023/07/07 11:52:03;;;;;;;2.80;1.23;;;;;;;26.24;43.09;102114.03;6147178;28;20239;-66
2023/07/07 11:55:40;;;;;;;2.58;1.60;;;;;;;26.62;43.62;102106.84;6141711;28;20234;-66
2023/07/07 11:59:10;;;;;;;1.42;1.30;;;;;;;26.32;42.50;102113.81;6148309;28;20238;-66
2023/07/07 12:02:39;;;;;;;2.60;1.80;;;;;;;25.96;42.31;102116.88;6134890;28;20242;-66
2023/07/07 12:06:05;;;;;;;1.90;1.38;;;;;;;26.13;42.81;102106.31;6146261;28;20250;-66
2023/07/07 12:09:36;;;;;;;2.53;1.70;;;;;;;26.82;42.37;102104.97;6152797;28;20546;-66
2023/07/07 12:13:01;;;;;;;2.42;2.13;;;;;;;26.42;42.07;102105.97;6148343;28;20628;-67
2023/07/07 12:16:23;;;;;;;1.73;1.63;;;;;;;25.77;42.36;102105.72;6140892;28;20247;-66
2023/07/07 12:19:50;;;;;;;4.60;1.55;;;;;;;26.73;42.62;102100.72;6152074;28;20238;-66
2023/07/07 12:23:16;;;;;;;1.85;1.50;;;;;;;27.15;41.24;102102.19;6149063;28;20234;-65
2023/07/07 12:26:42;;;;;;;4.00;2.05;;;;;;;26.24;41.43;102108.50;6154049;28;20615;-65
2023/07/07 12:30:05;;;;;;;1.35;1.25;;;;;;;26.79;41.18;102105.38;6145673;28;20253;-66
2023/07/07 12:33:26;;;;;;;2.20;1.83;;;;;;;26.80;40.88;102092.41;6150671;28;20234;-66
2023/07/07 12:36:48;;;;;;;1.92;1.60;;;;;;;27.53;41.59;102099.56;6138232;28;20546;-65
2023/07/07 12:40:16;;;;;;;2.58;1.88;;;;;;;27.23;40.86;102096.41;6149183;28;20234;-65
2023/07/07 12:43:40;;;;;;;2.78;1.73;;;;;;;27.47;40.63;102097.69;6135156;28;20225;-65
2023/07/07 12:47:18;;;;;;;2.60;1.35;;;;;;;27.69;39.87;102090.78;6140446;28;20310;-71
2023/07/07 12:50:42;;;;;;;3.75;1.50;;;;;;;27.89;40.22;102087.94;6148542;28;20257;-71
2023/07/07 12:54:06;;;;;;;2.30;2.00;;;;;;;28.08;40.05;102096.16;6145520;28;20258;-71
2023/07/07 12:57:27;;;;;;;3.63;2.22;;;;;;;28.58;40.45;102091.59;6142476;28;20623;-73
2023/07/07 13:00:47;;;;;;;1.63;1.20;;;;;;;28.13;38.85;102085.25;6142798;28;20234;-72
2023/07/07 13:04:16;;;;;;;2.42;1.30;;;;;;;28.07;39.90;102083.38;6152108;28;20234;-72
2023/07/07 13:07:41;;;;;;;2.88;1.77;;;;;;;28.68;39.96;102086.41;6128948;28;20239;-73
2023/07/07 13:11:06;;;;;;;2.25;1.98;;;;;;;27.40;39.66;102091.28;6151934;28;20512;-73
2023/07/07 13:14:31;;;;;;;2.72;1.70;;;;;;;28.56;39.70;102088.19;6149194;28;20226;-73
2023/07/07 13:17:54;;;;;;;1.70;1.60;;;;;;;29.59;39.01;102089.38;6149455;28;20234;-72
2023/07/07 13:21:16;;;;;;;3.47;2.03;;;;;;;31.08;36.74;102101.38;6146381;28;20230;-73
2023/07/07 13:24:42;;;;;;;2.55;1.60;;;;;;;30.95;34.59;102094.09;6148368;28;20235;-73
2023/07/07 13:28:11;;;;;;;1.88;1.55;;;;;;;33.56;32.77;102092.91;6153770;28;20238;-73
2023/07/07 13:31:38;;;;;;;2.45;2.25;;;;;;;34.36;32.27;102090.22;6157644;28;20249;-73
2023/07/07 13:35:00;;;;;;;4.22;2.78;;;;;;;35.66;30.80;102086.81;6153870;28;20352;-74
2023/07/07 13:38:25;;;;;;;2.20;1.75;;;;;;;33.56;31.24;102087.31;6136954;28;20259;-72
2023/07/07 13:41:47;;;;;;;2.28;1.85;;;;;;;32.69;32.28;102083.34;6139889;28;20246;-72
2023/07/07 13:45:19;;;;;;;2.00;1.90;;;;;;;31.90;32.86;102089.03;6148185;28;20598;-73
2023/07/07 13:48:42;;;;;;;2.45;1.63;;;;;;;32.02;32.24;102084.31;6148517;28;20230;-72
2023/07/07 13:52:12;;;;;;;3.35;1.67;;;;;;;33.02;32.38;102088.13;6145445;28;20318;-73
2023/07/07 13:55:36;;;;;;;2.25;1.83;;;;;;;33.87;32.01;102080.13;6145245;28;20238;-72
2023/07/07 13:58:57;;;;;;;2.45;1.75;;;;;;;32.06;32.44;102086.34;6134763;28;20990;-72
2023/07/07 14:02:21;;;;;;;2.63;1.73;;;;;;;32.50;32.19;102081.06;6135249;28;20237;-73
2023/07/07 14:05:43;;;;;;;4.18;1.95;;;;;;;31.99;33.53;102076.41;6155662;28;20234;-72
2023/07/07 14:09:04;;;;;;;2.80;1.98;;;;;;;31.71;33.93;102079.97;6135387;28;23048;-73
2023/07/07 14:12:27;;;;;;;2.22;1.60;;;;;;;31.49;35.34;102077.03;6147095;28;20789;-72
2023/07/07 14:15:58;;;;;;;1.90;1.52;;;;;;;31.86;35.57;102065.50;6141457;28;20616;-72
2023/07/07 14:19:25;;;;;;;1.75;1.50;;;;;;;31.43;35.04;102069.63;6132269;28;20492;-72
2023/07/07 14:22:46;;;;;;;1.98;1.70;;;;;;;30.95;35.40;102070.94;6126479;28;20261;-71
2023/07/07 14:26:15;;;;;;;2.38;1.63;;;;;;;30.04;35.83;102056.53;6134001;28;20254;-72
2023/07/07 14:29:41;;;;;;;1.20;1.08;;;;;;;29.15;35.84;102062.72;6143477;28;20233;-71
2023/07/07 14:33:02;;;;;;;1.75;1.65;;;;;;;28.90;36.89;102056.31;6129131;28;20626;-71
2023/07/07 14:36:28;;;;;;;1.90;1.58;;;;;;;28.55;36.67;102055.09;6149829;28;20288;-72
2023/07/07 14:39:50;;;;;;;1.88;1.55;;;;;;;29.65;37.13;102055.06;6129724;28;20602;-72
2023/07/07 14:43:20;;;;;;;1.75;1.40;;;;;;;30.02;36.53;102053.97;6130391;28;20245;-72
2023/07/07 14:46:41;;;;;;;2.15;1.88;;;;;;;30.32;35.79;102045.63;6141345;28;20568;-73
2023/07/07 14:50:04;;;;;;;5.28;1.67;;;;;;;31.11;36.27;102039.56;6131272;28;20855;-73
2023/07/07 14:53:26;;;;;;;1.67;1.58;;;;;;;31.39;35.03;102048.03;6135546;28;20247;-71
2023/07/07 14:56:52;;;;;;;2.33;1.75;;;;;;;30.74;34.13;102047.28;6130848;28;20239;-73
2023/07/07 15:00:36;;;;;;;3.28;1.55;;;;;;;30.16;35.75;102043.50;6142585;28;20243;-73
2023/07/07 15:03:59;;;;;;;3.45;2.05;;;;;;;29.96;36.21;102043.78;6133507;28;20235;-72
2023/07/07 15:07:28;;;;;;;9.10;8.20;;;;;;;30.86;37.39;102036.16;6138402;28;20227;-70
2023/07/07 15:10:51;;;;;;;2.30;2.10;;;;;;;30.81;34.83;102030.47;6147185;28;20230;-70
2023/07/07 15:14:13;;;;;;;87.55;41.97;;;;;;;31.63;38.09;102034.88;6143800;28;20239;-68
2023/07/07 15:17:34;;;;;;;23.38;15.85;;;;;;;31.60;38.02;102025.09;6149102;28;20269;-70
2023/07/07 15:20:55;;;;;;;22.02;17.35;;;;;;;31.74;36.41;102034.00;6134501;28;20339;-70
2023/07/07 15:24:16;;;;;;;18.77;12.38;;;;;;;31.66;35.09;102031.63;6123845;28;20293;-70
2023/07/07 15:27:38;;;;;;;15.65;13.80;;;;;;;31.33;35.27;102040.66;6116851;28;20258;-68
2023/07/07 15:30:59;;;;;;;2.50;2.28;;;;;;;30.82;34.42;102030.22;6129867;28;20235;-69
2023/07/07 15:34:20;;;;;;;8.48;6.57;;;;;;;30.69;35.30;102030.44;6128931;28;20228;-69
2023/07/07 15:37:43;;;;;;;6.82;4.32;;;;;;;30.73;34.48;102032.50;6094776;28;20309;-72
2023/07/07 15:41:09;;;;;;;2.20;1.88;;;;;;;29.95;33.96;102030.97;6127276;28;20485;-71
2023/07/07 15:44:31;;;;;;;1.92;1.75;;;;;;;30.23;34.30;102024.78;6121169;28;20231;-69
2023/07/07 15:47:52;;;;;;;6.82;4.88;;;;;;;31.01;36.28;102031.81;6117954;28;20262;-69
2023/07/07 15:51:26;;;;;;;5.18;4.28;;;;;;;31.12;36.14;102030.13;6114169;28;20313;-68